Time,TemperatureF,DewpointF,PressureIn,WindDirection,WindDirectionDegrees,WindSpeedMPH,WindSpeedGustMPH,Humidity,HourlyPrecipIn,Conditions,Clouds,dailyrainin,SolarRadiationWatts/m^2,SoftwareType,DateUTC
2013-08-29 00:04:00,76.6,55.5,29.91,East,90,0.0,2.3,48,0.00,CLR,SCT,0.00,0.0,WeatherDisplay:10.37,2013-08-29 05:04:00,
2013-08-29 00:09:00,76.5,55.3,29.91,SSE,158,0.0,1.1,48,0.00,CLR,SCT,0.00,0.0,WeatherDisplay:10.37,2013-08-29 05:09:00,
2013-08-29 00:14:00,76.5,55.9,29.91,South,180,0.0,0.0,49,0.00,CLR,SCT,0.00,0.0,WeatherDisplay:10.37,2013-08-29 05:14:00,
2013-08-29 00:19:00,76.3,55.7,29.91,SSE,158,1.1,2.4,49,0.00,CLR,SCT,0.00,0.0,WeatherDisplay:10.37,2013-08-29 05:19:00,
2013-08-29 00:24:00,76.3,55.1,29.91,South,180,2.9,3.5,48,0.00,CLR,SCT,0.00,0.0,WeatherDisplay:10.37,2013-08-29 05:24:00,
2013-08-29 00:29:00,76.3,55.7,29.91,ESE,112,2.0,3.5,49,0.00,CLR,SCT,0.00,0.0,WeatherDisplay:10.37,2013-08-29 05:29:00,
2013-08-29 00:34:00,76.1,55.5,29.94,South,180,1.6,2.3,49,0.00,CLR,SCT,0.00,0.0,WeatherDisplay:10.37,2013-08-29 05:34:00,
2013-08-29 00:39:00,76.1,56.1,29.94,SSW,202,1.1,1.1,50,0.00,CLR,SCT,0.00,0.0,WeatherDisplay:10.37,2013-08-29 05:39:00,
2013-08-29 00:44:00,75.9,55.4,29.94,SSE,158,0.0,1.4,49,0.00,CLR,SCT,0.00,0.0,WeatherDisplay:10.37,2013-08-29 05:44:00,
2013-08-29 00:49:00,75.9,55.4,29.94,SSE,158,0.0,0.0,49,0.00,CLR,SCT,0.00,0.0,WeatherDisplay:10.37,2013-08-29 05:49:00,
2013-08-29 00:54:00,75.7,55.8,29.94,SSE,158,0.0,0.0,50,0.00,CLR,SCT,0.00,0.0,WeatherDisplay:10.37,2013-08-29 05:54:00,
2013-08-29 00:59:00,75.6,55.1,29.94,SSE,158,0.0,0.0,49,0.00,CLR,SCT,0.00,0.0,WeatherDisplay:10.37,2013-08-29 05:59:00,
2013-08-29 01:04:00,75.4,54.3,29.94,SSE,158,0.0,0.0,48,0.00,CLR,SCT,0.00,0.0,WeatherDisplay:10.37,2013-08-29 06:04:00,
2013-08-29 01:09:00,75.2,54.7,29.94,SSE,158,0.0,0.0,49,0.00,CLR,SCT,0.00,0.0,WeatherDisplay:10.37,2013-08-29 06:09:00,
2013-08-29 01:14:00,75.0,54.6,29.94,SSE,158,0.0,0.0,49,0.00,CLR,SCT,0.00,0.0,WeatherDisplay:10.37,2013-08-29 06:14:00,
2013-08-29 01:19:00,74.8,54.4,29.94,ESE,112,0.0,0.0,49,0.00,CLR,SCT,0.00,0.0,WeatherDisplay:10.37,2013-08-29 06:19:00,
2013-08-29 01:24:00,74.8,54.4,29.94,East,90,0.0,1.1,49,0.00,CLR,SCT,0.00,0.0,WeatherDisplay:10.37,2013-08-29 06:24:00,
2013-08-29 01:29:00,74.8,54.4,29.94,East,90,0.0,0.0,49,0.00,CLR,SCT,0.00,0.0,WeatherDisplay:10.37,2013-08-29 06:29:00,
2013-08-29 01:34:00,74.7,54.8,29.94,ESE,112,1.6,2.3,50,0.00,CLR,SCT,0.00,0.0,WeatherDisplay:10.37,2013-08-29 06:34:00,
2013-08-29 01:39:00,74.5,54.6,29.94,ENE,68,0.0,1.1,50,0.00,CLR,SCT,0.00,0.0,WeatherDisplay:10.37,2013-08-29 06:39:00,
2013-08-29 01:44:00,74.5,54.6,29.94,ESE,112,1.1,2.3,50,0.00,CLR,SCT,0.00,0.0,WeatherDisplay:10.37,2013-08-29 06:44:00,
2013-08-29 01:49:00,74.3,55.0,29.91,SSE,158,0.0,1.1,51,0.00,CLR,SCT,0.00,0.0,WeatherDisplay:10.37,2013-08-29 06:49:00,
2013-08-29 01:54:00,74.1,55.9,29.91,SSE,158,1.4,2.3,53,0.00,CLR,SCT,0.00,0.0,WeatherDisplay:10.37,2013-08-29 06:54:00,
2013-08-29 01:59:00,74.3,57.1,29.91,South,180,0.0,1.1,55,0.00,CLR,SCT,0.00,0.0,WeatherDisplay:10.37,2013-08-29 06:59:00,
2013-08-29 02:04:00,74.3,56.6,29.94,SSE,158,0.0,2.3,54,0.00,CLR,SCT,0.00,0.0,WeatherDisplay:10.37,2013-08-29 07:04:00,
2013-08-29 02:09:00,74.3,57.1,29.94,SW,225,1.1,1.1,55,0.00,CLR,SCT,0.00,0.0,WeatherDisplay:10.37,2013-08-29 07:09:00,
2013-08-29 02:14:00,74.3,57.1,29.94,WSW,248,1.1,2.3,55,0.00,CLR,SCT,0.00,0.0,WeatherDisplay:10.37,2013-08-29 07:14:00,
2013-08-29 02:19:00,74.3,56.6,29.91,SW,225,0.0,1.1,54,0.00,CLR,SCT,0.00,0.0,WeatherDisplay:10.37,2013-08-29 07:19:00,
2013-08-29 02:24:00,74.3,57.1,29.91,WSW,248,0.0,2.3,55,0.00,CLR,SCT,0.00,0.0,WeatherDisplay:10.37,2013-08-29 07:24:00,
2013-08-29 02:29:00,74.1,56.9,29.91,SSW,202,1.6,2.3,55,0.00,CLR,SCT,0.00,0.0,WeatherDisplay:10.37,2013-08-29 07:29:00,
2013-08-29 02:34:00,74.1,56.4,29.91,SSE,158,2.0,2.3,54,0.00,CLR,SCT,0.00,0.0,WeatherDisplay:10.37,2013-08-29 07:34:00,
2013-08-29 02:39:00,74.1,56.4,29.91,ESE,112,1.4,1.6,54,0.00,CLR,SCT,0.00,0.0,WeatherDisplay:10.37,2013-08-29 07:39:00,
2013-08-29 02:44:00,74.1,56.4,29.91,ESE,112,1.4,2.3,54,0.00,CLR,SCT,0.00,0.0,WeatherDisplay:10.37,2013-08-29 07:44:00,
2013-08-29 02:49:00,74.1,57.9,29.91,SSE,158,1.4,2.0,57,0.00,CLR,SCT,0.00,0.0,WeatherDisplay:10.37,2013-08-29 07:49:00,
2013-08-29 02:54:00,73.9,57.3,29.91,South,180,2.2,3.5,56,0.00,CLR,SCT,0.00,0.0,WeatherDisplay:10.37,2013-08-29 07:54:00,
2013-08-29 02:59:00,73.9,58.2,29.91,SSW,202,1.4,2.3,58,0.00,CLR,SCT,0.00,0.0,WeatherDisplay:10.37,2013-08-29 07:59:00,
2013-08-29 03:04:00,73.9,58.7,29.91,SSE,158,0.0,3.3,59,0.00,CLR,SCT,0.00,0.0,WeatherDisplay:10.37,2013-08-29 08:04:00,
2013-08-29 03:09:00,73.9,58.2,29.91,South,180,1.4,2.3,58,0.00,CLR,SCT,0.00,0.0,WeatherDisplay:10.37,2013-08-29 08:09:00,
2013-08-29 03:14:00,73.9,59.2,29.91,SW,225,0.0,1.4,60,0.00,CLR,SCT,0.00,0.0,WeatherDisplay:10.37,2013-08-29 08:14:00,
2013-08-29 03:19:00,73.8,59.0,29.91,WSW,248,0.9,1.1,60,0.00,CLR,SCT,0.00,0.0,WeatherDisplay:10.37,2013-08-29 08:19:00,
2013-08-29 03:24:00,73.8,58.5,29.91,WSW,248,1.1,2.3,59,0.00,CLR,SCT,0.00,0.0,WeatherDisplay:10.37,2013-08-29 08:24:00,
2013-08-29 03:29:00,73.6,58.4,29.91,South,180,0.0,0.0,59,0.00,CLR,SCT,0.00,0.0,WeatherDisplay:10.37,2013-08-29 08:29:00,
2013-08-29 03:34:00,73.6,58.4,29.94,South,180,0.0,0.0,59,0.00,CLR,SCT,0.00,0.0,WeatherDisplay:10.37,2013-08-29 08:34:00,
2013-08-29 03:39:00,73.4,57.7,29.94,South,180,0.0,0.0,58,0.00,CLR,SCT,0.00,0.0,WeatherDisplay:10.37,2013-08-29 08:39:00,
2013-08-29 03:44:00,73.4,57.7,29.94,ESE,112,1.6,2.3,58,0.00,CLR,SCT,0.00,0.0,WeatherDisplay:10.37,2013-08-29 08:44:00,
2013-08-29 03:49:00,73.2,58.5,29.91,ENE,68,0.0,1.1,60,0.00,CLR,SCT,0.00,0.0,WeatherDisplay:10.37,2013-08-29 08:49:00,
2013-08-29 03:54:00,73.0,57.9,29.91,ESE,112,0.0,1.1,59,0.00,CLR,SCT,0.00,0.0,WeatherDisplay:10.37,2013-08-29 08:54:00,
2013-08-29 03:59:00,72.9,57.7,29.91,ESE,112,0.0,0.0,59,0.00,CLR,SCT,0.00,0.0,WeatherDisplay:10.37,2013-08-29 08:59:00,
2013-08-29 04:04:00,72.9,59.5,29.91,SSE,158,0.0,2.3,63,0.00,CLR,SCT,0.00,0.0,WeatherDisplay:10.37,2013-08-29 09:04:00,
2013-08-29 04:09:00,72.9,60.4,29.91,SSW,202,0.9,2.3,65,0.00,CLR,SCT,0.00,0.0,WeatherDisplay:10.37,2013-08-29 09:09:00,
2013-08-29 04:14:00,72.9,60.4,29.91,ESE,112,0.0,1.6,65,0.00,CLR,SCT,0.00,0.0,WeatherDisplay:10.37,2013-08-29 09:14:00,
2013-08-29 04:19:00,72.9,60.4,29.91,South,180,2.4,3.5,65,0.00,CLR,SCT,0.00,0.0,WeatherDisplay:10.37,2013-08-29 09:19:00,
2013-08-29 04:24:00,72.9,60.0,29.91,ESE,112,1.4,2.3,64,0.00,CLR,SCT,0.00,0.0,WeatherDisplay:10.37,2013-08-29 09:24:00,
2013-08-29 04:29:00,72.9,60.4,29.91,SSW,202,1.1,3.5,65,0.00,CLR,SCT,0.00,0.0,WeatherDisplay:10.37,2013-08-29 09:29:00,
2013-08-29 04:34:00,72.9,60.4,29.88,SSE,158,1.6,2.3,65,0.00,CLR,SCT,0.00,0.0,WeatherDisplay:10.37,2013-08-29 09:34:00,
2013-08-29 04:39:00,72.9,60.4,29.88,SSW,202,2.4,2.6,65,0.00,CLR,SCT,0.00,0.0,WeatherDisplay:10.37,2013-08-29 09:39:00,
2013-08-29 04:44:00,72.9,60.8,29.88,SSW,202,2.4,2.4,66,0.00,CLR,SCT,0.00,0.0,WeatherDisplay:10.37,2013-08-29 09:44:00,
2013-08-29 04:49:00,72.9,60.8,29.91,SSE,158,1.4,2.3,66,0.00,CLR,SCT,0.00,0.0,WeatherDisplay:10.37,2013-08-29 09:49:00,
2013-08-29 04:54:00,72.9,61.3,29.91,ESE,112,0.9,3.5,67,0.00,CLR,SCT,0.00,0.0,WeatherDisplay:10.37,2013-08-29 09:54:00,
2013-08-29 04:59:00,72.9,61.7,29.91,SSW,202,2.9,3.6,68,0.00,CLR,SCT,0.00,0.0,WeatherDisplay:10.37,2013-08-29 09:59:00,
2013-08-29 05:04:00,72.9,61.3,29.88,South,180,1.4,2.4,67,0.00,CLR,SCT,0.00,0.0,WeatherDisplay:10.37,2013-08-29 10:04:00,
2013-08-29 05:09:00,72.9,61.7,29.88,WSW,248,0.9,2.3,68,0.00,CLR,SCT,0.00,0.0,WeatherDisplay:10.37,2013-08-29 10:09:00,
2013-08-29 05:14:00,72.7,61.1,29.88,SSE,158,0.0,1.1,67,0.00,CLR,SCT,0.00,0.0,WeatherDisplay:10.37,2013-08-29 10:14:00,
2013-08-29 05:19:00,72.7,60.7,29.91,ESE,112,1.6,2.3,66,0.00,CLR,SCT,0.00,0.0,WeatherDisplay:10.37,2013-08-29 10:19:00,
2013-08-29 05:24:00,72.7,60.7,29.91,East,90,0.0,1.1,66,0.00,CLR,SCT,0.00,0.0,WeatherDisplay:10.37,2013-08-29 10:24:00,
2013-08-29 05:29:00,72.5,60.1,29.91,SE,135,0.0,2.4,65,0.00,CLR,SCT,0.00,0.0,WeatherDisplay:10.37,2013-08-29 10:29:00,
2013-08-29 05:34:00,72.5,60.5,29.91,ESE,112,2.0,2.3,66,0.00,CLR,SCT,0.00,0.0,WeatherDisplay:10.37,2013-08-29 10:34:00,
2013-08-29 05:39:00,72.3,60.3,29.91,ESE,112,1.4,2.3,66,0.00,CLR,SCT,0.00,0.0,WeatherDisplay:10.37,2013-08-29 10:39:00,
2013-08-29 05:44:00,72.3,60.3,29.91,ESE,112,0.0,0.0,66,0.00,CLR,SCT,0.00,0.0,WeatherDisplay:10.37,2013-08-29 10:44:00,
2013-08-29 05:49:00,72.3,60.7,29.91,SSW,202,0.0,0.0,67,0.00,CLR,SCT,0.00,0.0,WeatherDisplay:10.37,2013-08-29 10:49:00,
2013-08-29 05:54:00,72.3,60.7,29.91,SSE,158,0.0,2.3,67,0.00,CLR,SCT,0.00,0.0,WeatherDisplay:10.37,2013-08-29 10:54:00,
2013-08-29 05:59:00,72.3,60.7,29.91,ESE,112,1.6,2.2,67,0.00,CLR,SCT,0.00,0.0,WeatherDisplay:10.37,2013-08-29 10:59:00,
2013-08-29 06:04:00,72.1,60.2,29.91,SE,135,0.0,1.1,66,0.00,CLR,SCT,0.00,0.0,WeatherDisplay:10.37,2013-08-29 11:04:00,
2013-08-29 06:09:00,72.0,60.0,29.91,East,90,0.0,1.6,66,0.00,CLR,SCT,0.00,0.0,WeatherDisplay:10.37,2013-08-29 11:09:00,
2013-08-29 06:14:00,72.0,60.0,29.91,East,90,0.0,1.4,66,0.00,CLR,SCT,0.00,0.0,WeatherDisplay:10.37,2013-08-29 11:14:00,
2013-08-29 06:19:00,72.0,60.0,29.91,ESE,112,1.1,1.4,66,0.00,OVC,SCT,0.00,0.0,WeatherDisplay:10.37,2013-08-29 11:19:00,
2013-08-29 06:24:00,71.8,60.6,29.91,ENE,68,0.0,1.1,68,0.00,OVC,SCT,0.00,0.0,WeatherDisplay:10.37,2013-08-29 11:24:00,
2013-08-29 06:29:00,71.6,60.1,29.91,ESE,112,2.0,2.3,67,0.00,OVC,SCT,0.00,0.0,WeatherDisplay:10.37,2013-08-29 11:29:00,
2013-08-29 06:34:00,71.6,60.1,29.91,East,90,1.6,2.4,67,0.00,OVC,SCT,0.00,0.0,WeatherDisplay:10.37,2013-08-29 11:34:00,
2013-08-29 06:39:00,71.4,60.3,29.91,SE,135,0.0,1.1,68,0.00,OVC,SCT,0.00,0.0,WeatherDisplay:10.37,2013-08-29 11:39:00,
2013-08-29 06:44:00,71.4,60.7,29.91,SSE,158,0.0,0.0,69,0.00,OVC,SCT,0.00,0.0,WeatherDisplay:10.37,2013-08-29 11:44:00,
2013-08-29 06:49:00,71.6,61.3,29.91,NE,45,0.9,2.4,70,0.00,SCT,,0.00,0.0,WeatherDisplay:10.37,2013-08-29 11:49:00,
2013-08-29 06:54:00,71.4,61.9,29.91,ENE,68,0.9,1.1,72,0.00,SCT,,0.00,0.0,WeatherDisplay:10.37,2013-08-29 11:54:00,
2013-08-29 06:59:00,71.4,61.5,29.91,ESE,112,1.6,2.3,71,0.00,SCT,,0.00,0.0,WeatherDisplay:10.37,2013-08-29 11:59:00,
2013-08-29 07:04:00,71.2,61.0,29.91,ENE,68,0.9,1.1,70,0.00,SCT,,0.00,0.0,WeatherDisplay:10.37,2013-08-29 12:04:00,
2013-08-29 07:09:00,71.2,61.0,29.91,East,90,1.1,2.3,70,0.00,SCT,,0.00,0.0,WeatherDisplay:10.37,2013-08-29 12:09:00,
2013-08-29 07:14:00,71.2,61.0,29.91,ENE,68,0.0,1.1,70,0.00,SCT,,0.00,0.0,WeatherDisplay:10.37,2013-08-29 12:14:00,
2013-08-29 07:19:00,71.2,61.0,29.91,SSE,158,1.6,2.6,70,0.00,SCT,,0.00,0.0,WeatherDisplay:10.37,2013-08-29 12:19:00,
2013-08-29 07:24:00,71.2,61.4,29.91,ESE,112,1.6,2.3,71,0.00,SCT,,0.00,0.0,WeatherDisplay:10.37,2013-08-29 12:24:00,
2013-08-29 07:29:00,71.2,61.4,29.91,East,90,2.0,2.3,71,0.00,SCT,,0.00,0.0,WeatherDisplay:10.37,2013-08-29 12:29:00,
2013-08-29 07:34:00,71.2,61.7,29.88,ESE,112,2.0,2.4,72,0.00,SCT,,0.00,0.0,WeatherDisplay:10.37,2013-08-29 12:34:00,
2013-08-29 07:39:00,71.2,61.4,29.88,ENE,68,1.1,2.3,71,0.00,SCT,,0.00,0.0,WeatherDisplay:10.37,2013-08-29 12:39:00,
2013-08-29 07:44:00,71.4,61.9,29.88,East,90,1.4,1.6,72,0.00,SCT,,0.00,0.0,WeatherDisplay:10.37,2013-08-29 12:44:00,
2013-08-29 07:49:00,71.6,62.1,29.91,East,90,1.6,2.3,72,0.00,SCT,,0.00,0.0,WeatherDisplay:10.37,2013-08-29 12:49:00,
2013-08-29 07:54:00,72.0,62.8,29.91,ESE,112,1.4,3.5,73,0.00,SCT,,0.00,0.0,WeatherDisplay:10.37,2013-08-29 12:54:00,
2013-08-29 07:59:00,72.3,63.6,29.91,ESE,112,2.0,3.5,74,0.00,BKN,SCT,0.00,0.0,WeatherDisplay:10.37,2013-08-29 12:59:00,
2013-08-29 08:04:00,72.9,64.5,29.91,ESE,112,2.4,3.5,75,0.00,BKN,SCT,0.00,2.7,WeatherDisplay:10.37,2013-08-29 13:04:00,
2013-08-29 08:09:00,73.4,64.6,29.91,SSE,158,2.0,3.5,74,0.00,BKN,SCT,0.00,0.0,WeatherDisplay:10.37,2013-08-29 13:09:00,
2013-08-29 08:14:00,73.9,65.1,29.91,NNE,22,2.2,3.5,74,0.00,BKN,SCT,0.00,0.0,WeatherDisplay:10.37,2013-08-29 13:14:00,
2013-08-29 08:19:00,74.5,65.3,29.91,ESE,112,1.4,2.6,73,0.00,OVC,SCT,0.00,0.0,WeatherDisplay:10.37,2013-08-29 13:19:00,
2013-08-29 08:24:00,75.0,65.4,29.91,SSE,158,2.4,3.5,72,0.00,OVC,SCT,0.00,0.0,WeatherDisplay:10.37,2013-08-29 13:24:00,
2013-08-29 08:29:00,75.2,64.7,29.91,SSE,158,2.9,4.7,70,0.00,OVC,SCT,0.00,0.0,WeatherDisplay:10.37,2013-08-29 13:29:00,
2013-08-29 08:34:00,75.9,65.0,29.91,SE,135,2.6,5.8,69,0.00,OVC,SCT,0.00,0.0,WeatherDisplay:10.37,2013-08-29 13:34:00,
2013-08-29 08:39:00,76.3,64.5,29.91,South,180,2.2,3.5,67,0.00,OVC,SCT,0.00,0.0,WeatherDisplay:10.37,2013-08-29 13:39:00,
2013-08-29 08:44:00,76.8,65.0,29.91,East,90,2.2,3.5,67,0.00,OVC,SCT,0.00,0.0,WeatherDisplay:10.37,2013-08-29 13:44:00,
2013-08-29 08:49:00,77.4,64.7,29.91,SSE,158,1.4,3.5,65,0.00,OVC,SCT,0.00,0.0,WeatherDisplay:10.37,2013-08-29 13:49:00,
2013-08-29 08:54:00,77.9,64.7,29.91,ESE,112,3.1,4.6,64,0.00,OVC,SCT,0.00,0.0,WeatherDisplay:10.37,2013-08-29 13:54:00,
2013-08-29 08:59:00,78.4,64.8,29.91,ESE,112,2.9,4.6,63,0.00,OVC,SCT,0.00,0.0,WeatherDisplay:10.37,2013-08-29 13:59:00,
2013-08-29 09:04:00,78.8,64.2,29.94,East,90,2.0,2.4,61,0.00,OVC,SCT,0.00,0.0,WeatherDisplay:10.37,2013-08-29 14:04:00,
2013-08-29 09:09:00,79.2,64.1,29.94,SSE,158,3.1,3.5,60,0.00,OVC,SCT,0.00,0.0,WeatherDisplay:10.37,2013-08-29 14:09:00,
2013-08-29 09:14:00,79.5,63.9,29.94,South,180,3.3,4.6,59,0.00,OVC,SCT,0.00,0.0,WeatherDisplay:10.37,2013-08-29 14:14:00,
2013-08-29 09:19:00,79.9,64.3,29.91,SSW,202,3.1,5.8,59,0.00,OVC,SCT,0.00,0.0,WeatherDisplay:10.37,2013-08-29 14:19:00,
2013-08-29 09:24:00,79.9,63.3,29.91,East,90,2.9,5.8,57,0.00,OVC,SCT,0.00,0.0,WeatherDisplay:10.37,2013-08-29 14:24:00,
2013-08-29 09:29:00,80.1,62.9,29.91,ESE,112,4.9,8.1,56,0.00,OVC,SCT,0.00,0.0,WeatherDisplay:10.37,2013-08-29 14:29:00,
2013-08-29 09:34:00,80.6,64.0,29.91,SSE,158,2.9,4.6,57,0.00,OVC,SCT,0.00,0.0,WeatherDisplay:10.37,2013-08-29 14:34:00,
2013-08-29 09:39:00,80.8,63.1,29.91,SSE,158,2.4,4.6,55,0.00,OVC,SCT,0.00,0.0,WeatherDisplay:10.37,2013-08-29 14:39:00,
2013-08-29 09:44:00,81.1,62.9,29.91,SSE,158,2.4,4.6,54,0.00,OVC,SCT,0.00,0.0,WeatherDisplay:10.37,2013-08-29 14:44:00,
2013-08-29 09:49:00,81.5,63.3,29.91,ESE,112,4.3,5.8,54,0.00,OVC,SCT,0.00,0.0,WeatherDisplay:10.37,2013-08-29 14:49:00,
2013-08-29 09:54:00,81.5,63.3,29.91,SE,135,3.3,4.6,54,0.00,OVC,SCT,0.00,100.0,WeatherDisplay:10.37,2013-08-29 14:54:00,
2013-08-29 09:59:00,81.9,64.1,29.91,ESE,112,2.4,4.6,55,0.00,OVC,SCT,0.00,100.0,WeatherDisplay:10.37,2013-08-29 14:59:00,
2013-08-29 10:04:00,82.2,63.4,29.91,ESE,112,2.6,4.6,53,0.00,OVC,SCT,0.00,100.0,WeatherDisplay:10.37,2013-08-29 15:04:00,
2013-08-29 10:09:00,82.4,63.0,29.91,ESE,112,2.9,3.8,52,0.00,OVC,SCT,0.00,100.0,WeatherDisplay:10.37,2013-08-29 15:09:00,
2013-08-29 10:14:00,82.6,63.7,29.91,SE,135,3.8,5.8,53,0.00,OVC,SCT,0.00,100.0,WeatherDisplay:10.37,2013-08-29 15:14:00,
2013-08-29 10:19:00,82.9,63.5,29.91,SSE,158,4.0,4.6,52,0.00,OVC,SCT,0.00,100.0,WeatherDisplay:10.37,2013-08-29 15:19:00,
2013-08-29 10:24:00,83.1,62.6,29.91,South,180,2.9,3.5,50,0.00,OVC,SCT,0.00,100.0,WeatherDisplay:10.37,2013-08-29 15:24:00,
2013-08-29 10:29:00,83.5,63.4,29.91,SE,135,3.6,5.8,51,0.00,OVC,SCT,0.00,100.0,WeatherDisplay:10.37,2013-08-29 15:29:00,
2013-08-29 10:34:00,83.8,62.6,29.91,SE,135,4.3,5.8,49,0.00,OVC,SCT,0.00,100.0,WeatherDisplay:10.37,2013-08-29 15:34:00,
2013-08-29 10:39:00,84.0,63.4,29.91,SSE,158,3.6,5.9,50,0.00,OVC,SCT,0.00,100.0,WeatherDisplay:10.37,2013-08-29 15:39:00,
2013-08-29 10:44:00,84.6,63.3,29.91,South,180,4.9,6.9,49,0.00,OVC,SCT,0.00,100.0,WeatherDisplay:10.37,2013-08-29 15:44:00,
2013-08-29 10:49:00,84.7,62.3,29.91,SSE,158,3.3,5.8,47,0.00,OVC,SCT,0.00,200.0,WeatherDisplay:10.37,2013-08-29 15:49:00,
2013-08-29 10:54:00,85.1,62.0,29.91,SSE,158,3.6,4.6,46,0.00,OVC,SCT,0.00,200.0,WeatherDisplay:10.37,2013-08-29 15:54:00,
2013-08-29 10:59:00,85.8,63.3,29.91,East,90,3.3,5.8,47,0.00,OVC,SCT,0.00,200.0,WeatherDisplay:10.37,2013-08-29 15:59:00,
2013-08-29 11:04:00,86.2,63.0,29.91,ESE,112,3.3,4.6,46,0.00,OVC,SCT,0.00,0.0,WeatherDisplay:10.37,2013-08-29 16:04:00,
2013-08-29 11:09:00,86.2,61.7,29.91,SE,135,4.0,5.8,44,0.00,OVC,SCT,0.00,200.0,WeatherDisplay:10.37,2013-08-29 16:09:00,
2013-08-29 11:14:00,86.4,61.9,29.91,SSE,158,4.7,4.7,44,0.00,OVC,SCT,0.00,200.0,WeatherDisplay:10.37,2013-08-29 16:14:00,
2013-08-29 11:19:00,86.5,61.4,29.91,ESE,112,4.3,5.8,43,0.00,OVC,SCT,0.00,200.0,WeatherDisplay:10.37,2013-08-29 16:19:00,
2013-08-29 11:24:00,86.5,61.4,29.91,ESE,112,3.8,6.9,43,0.00,OVC,SCT,0.00,300.0,WeatherDisplay:10.37,2013-08-29 16:24:00,
2013-08-29 11:29:00,87.1,61.2,29.91,South,180,4.0,4.6,42,0.00,OVC,SCT,0.00,100.0,WeatherDisplay:10.37,2013-08-29 16:29:00,
2013-08-29 11:34:00,87.3,62.0,29.91,ESE,112,4.9,8.1,43,0.00,OVC,SCT,0.00,200.0,WeatherDisplay:10.37,2013-08-29 16:34:00,
2013-08-29 11:39:00,87.4,61.5,29.91,ESE,112,4.0,5.8,42,0.00,OVC,SCT,0.00,200.0,WeatherDisplay:10.37,2013-08-29 16:39:00,
2013-08-29 11:44:00,88.2,60.8,29.91,ESE,112,4.3,6.2,40,0.00,OVC,SCT,0.00,200.0,WeatherDisplay:10.37,2013-08-29 16:44:00,
2013-08-29 11:49:00,88.3,61.7,29.88,East,90,4.7,8.1,41,0.00,OVC,SCT,0.00,300.0,WeatherDisplay:10.37,2013-08-29 16:49:00,
2013-08-29 11:54:00,88.7,61.3,29.88,East,90,5.4,6.9,40,0.00,OVC,SCT,0.00,300.0,WeatherDisplay:10.37,2013-08-29 16:54:00,
2013-08-29 11:59:00,88.9,61.4,29.88,SSE,158,4.3,5.8,40,0.00,OVC,SCT,0.00,300.0,WeatherDisplay:10.37,2013-08-29 16:59:00,
2013-08-29 12:04:00,88.9,60.7,29.88,ESE,112,4.5,8.1,39,0.00,OVC,SCT,0.00,300.0,WeatherDisplay:10.37,2013-08-29 17:04:00,
2013-08-29 12:09:00,89.2,61.0,29.88,SE,135,4.7,6.9,39,0.00,OVC,SCT,0.00,300.0,WeatherDisplay:10.37,2013-08-29 17:09:00,
2013-08-29 12:14:00,89.4,60.5,29.88,ESE,112,4.5,6.9,38,0.00,OVC,SCT,0.00,300.0,WeatherDisplay:10.37,2013-08-29 17:14:00,
2013-08-29 12:19:00,89.6,60.6,29.88,ESE,112,4.3,5.8,38,0.00,OVC,SCT,0.00,300.0,WeatherDisplay:10.37,2013-08-29 17:19:00,
2013-08-29 12:24:00,89.6,59.9,29.88,ESE,112,4.5,5.8,37,0.00,OVC,SCT,0.00,300.0,WeatherDisplay:10.37,2013-08-29 17:24:00,
2013-08-29 12:29:00,90.3,61.3,29.88,ESE,112,3.8,9.2,38,0.00,OVC,SCT,0.00,300.0,WeatherDisplay:10.37,2013-08-29 17:29:00,
2013-08-29 12:34:00,90.5,60.7,29.85,SSE,158,4.5,5.8,37,0.00,OVC,SCT,0.00,300.0,WeatherDisplay:10.37,2013-08-29 17:34:00,
2013-08-29 12:39:00,90.7,60.1,29.85,South,180,4.3,6.7,36,0.00,OVC,SCT,0.00,300.0,WeatherDisplay:10.37,2013-08-29 17:39:00,
2013-08-29 12:44:00,91.0,61.1,29.85,SSE,158,3.3,5.8,37,0.00,OVC,SCT,0.00,300.0,WeatherDisplay:10.37,2013-08-29 17:44:00,
2013-08-29 12:49:00,91.2,59.7,29.88,NE,45,3.8,5.8,35,0.00,OVC,SCT,0.00,300.0,WeatherDisplay:10.37,2013-08-29 17:49:00,
2013-08-29 12:54:00,91.4,59.1,29.88,SSW,202,6.0,8.1,34,0.00,OVC,SCT,0.00,300.0,WeatherDisplay:10.37,2013-08-29 17:54:00,
2013-08-29 12:59:00,91.6,59.2,29.88,SSE,158,4.0,6.0,34,0.00,OVC,SCT,0.00,300.0,WeatherDisplay:10.37,2013-08-29 17:59:00,
2013-08-29 13:04:00,91.6,59.2,29.88,ESE,112,5.6,8.1,34,0.00,OVC,SCT,0.00,300.0,WeatherDisplay:10.37,2013-08-29 18:04:00,
2013-08-29 13:09:00,91.9,59.6,29.88,East,90,5.4,8.5,34,0.00,OVC,SCT,0.00,300.0,WeatherDisplay:10.37,2013-08-29 18:09:00,
2013-08-29 13:14:00,91.8,58.6,29.88,SSW,202,3.3,6.9,33,0.00,OVC,SCT,0.00,300.0,WeatherDisplay:10.37,2013-08-29 18:14:00,
2013-08-29 13:19:00,91.9,58.7,29.85,SE,135,5.9,9.2,33,0.00,OVC,SCT,0.00,300.0,WeatherDisplay:10.37,2013-08-29 18:19:00,
2013-08-29 13:24:00,91.9,57.0,29.85,South,180,6.7,10.0,31,0.00,OVC,SCT,0.00,300.0,WeatherDisplay:10.37,2013-08-29 18:24:00,
2013-08-29 13:29:00,92.5,58.3,29.85,WSW,248,6.9,11.5,32,0.00,OVC,SCT,0.00,300.0,WeatherDisplay:10.37,2013-08-29 18:29:00,
2013-08-29 13:34:00,92.8,58.6,29.85,South,180,6.4,8.1,32,0.00,OVC,SCT,0.00,300.0,WeatherDisplay:10.37,2013-08-29 18:34:00,
2013-08-29 13:39:00,93.0,57.9,29.85,SSW,202,4.7,6.9,31,0.00,OVC,SCT,0.00,300.0,WeatherDisplay:10.37,2013-08-29 18:39:00,
2013-08-29 13:44:00,93.0,57.0,29.85,South,180,7.1,10.4,30,0.00,OVC,SCT,0.00,300.0,WeatherDisplay:10.37,2013-08-29 18:44:00,
2013-08-29 13:49:00,93.2,56.2,29.85,East,90,5.9,8.1,29,0.00,OVC,SCT,0.00,300.0,WeatherDisplay:10.37,2013-08-29 18:49:00,
2013-08-29 13:54:00,93.4,56.4,29.85,SSE,158,6.4,9.2,29,0.00,OVC,SCT,0.00,300.0,WeatherDisplay:10.37,2013-08-29 18:54:00,
2013-08-29 13:59:00,93.6,56.5,29.85,SSW,202,5.4,5.8,29,0.00,OVC,SCT,0.00,300.0,WeatherDisplay:10.37,2013-08-29 18:59:00,
2013-08-29 14:04:00,93.6,56.5,29.85,NNE,22,5.6,9.2,29,0.00,OVC,SCT,0.00,300.0,WeatherDisplay:10.37,2013-08-29 19:04:00,
2013-08-29 14:09:00,93.7,56.7,29.85,SSE,158,4.7,7.4,29,0.00,OVC,SCT,0.00,200.0,WeatherDisplay:10.37,2013-08-29 19:09:00,
2013-08-29 14:14:00,93.9,56.8,29.85,ESE,112,5.9,9.2,29,0.00,OVC,SCT,0.00,200.0,WeatherDisplay:10.37,2013-08-29 19:14:00,
2013-08-29 14:19:00,94.1,56.0,29.85,SE,135,6.0,7.4,28,0.00,OVC,SCT,0.00,200.0,WeatherDisplay:10.37,2013-08-29 19:19:00,
2013-08-29 14:24:00,94.3,56.2,29.85,WSW,248,4.9,8.1,28,0.00,OVC,SCT,0.00,200.0,WeatherDisplay:10.37,2013-08-29 19:24:00,
2013-08-29 14:29:00,94.5,56.3,29.85,SSE,158,4.9,6.0,28,0.00,OVC,SCT,0.00,200.0,WeatherDisplay:10.37,2013-08-29 19:29:00,
2013-08-29 14:34:00,94.5,56.3,29.85,West,270,5.9,6.9,28,0.00,OVC,SCT,0.00,200.0,WeatherDisplay:10.37,2013-08-29 19:34:00,
2013-08-29 14:39:00,94.8,56.6,29.85,South,180,6.4,9.2,28,0.00,OVC,SCT,0.00,300.0,WeatherDisplay:10.37,2013-08-29 19:39:00,
2013-08-29 14:44:00,94.8,56.6,29.85,SE,135,4.0,8.1,28,0.00,OVC,SCT,0.00,300.0,WeatherDisplay:10.37,2013-08-29 19:44:00,
2013-08-29 14:49:00,95.2,55.9,29.83,SSE,158,3.6,5.9,27,0.00,OVC,SCT,0.00,300.0,WeatherDisplay:10.37,2013-08-29 19:49:00,
2013-08-29 14:54:00,95.5,56.2,29.83,SSW,202,5.9,8.1,27,0.00,OVC,SCT,0.00,300.0,WeatherDisplay:10.37,2013-08-29 19:54:00,
2013-08-29 14:59:00,95.7,55.3,29.83,South,180,5.9,8.1,26,0.00,OVC,SCT,0.00,300.0,WeatherDisplay:10.37,2013-08-29 19:59:00,
2013-08-29 15:04:00,95.5,56.2,29.83,SSW,202,6.2,8.1,27,0.00,OVC,SCT,0.00,300.0,WeatherDisplay:10.37,2013-08-29 20:04:00,
2013-08-29 15:09:00,95.4,54.0,29.83,WSW,248,5.6,8.1,25,0.00,OVC,SCT,0.00,300.0,WeatherDisplay:10.37,2013-08-29 20:09:00,
2013-08-29 15:14:00,95.9,55.5,29.83,SW,225,3.8,5.8,26,0.00,OVC,SCT,0.00,300.0,WeatherDisplay:10.37,2013-08-29 20:14:00,
2013-08-29 15:19:00,96.1,55.7,29.85,South,180,4.5,8.5,26,0.00,OVC,SCT,0.00,300.0,WeatherDisplay:10.37,2013-08-29 20:19:00,
2013-08-29 15:24:00,96.1,55.7,29.85,SW,225,6.7,9.2,26,0.00,OVC,SCT,0.00,200.0,WeatherDisplay:10.37,2013-08-29 20:24:00,
2013-08-29 15:29:00,96.1,55.7,29.85,SE,135,3.3,6.9,26,0.00,OVC,SCT,0.00,200.0,WeatherDisplay:10.37,2013-08-29 20:29:00,
2013-08-29 15:34:00,96.4,56.0,29.83,ESE,112,5.4,9.2,26,0.00,OVC,SCT,0.00,200.0,WeatherDisplay:10.37,2013-08-29 20:34:00,
2013-08-29 15:39:00,96.3,55.8,29.83,SSE,158,5.4,8.1,26,0.00,OVC,SCT,0.00,200.0,WeatherDisplay:10.37,2013-08-29 20:39:00,
2013-08-29 15:44:00,95.9,55.5,29.83,SW,225,4.0,5.8,26,0.00,OVC,SCT,0.00,200.0,WeatherDisplay:10.37,2013-08-29 20:44:00,
2013-08-29 15:49:00,96.3,54.7,29.85,SSW,202,5.4,8.1,25,0.00,OVC,SCT,0.00,200.0,WeatherDisplay:10.37,2013-08-29 20:49:00,
2013-08-29 15:54:00,96.3,55.8,29.85,South,180,6.2,6.2,26,0.00,OVC,SCT,0.00,200.0,WeatherDisplay:10.37,2013-08-29 20:54:00,
2013-08-29 15:59:00,95.9,54.4,29.85,South,180,6.2,9.4,25,0.00,OVC,SCT,0.00,200.0,WeatherDisplay:10.37,2013-08-29 20:59:00,
2013-08-29 16:04:00,96.1,55.7,29.83,ESE,112,4.9,7.4,26,0.00,OVC,SCT,0.00,100.0,WeatherDisplay:10.37,2013-08-29 21:04:00,
2013-08-29 16:09:00,96.3,54.7,29.83,South,180,6.4,9.2,25,0.00,OVC,SCT,0.00,100.0,WeatherDisplay:10.37,2013-08-29 21:09:00,
2013-08-29 16:14:00,96.4,56.0,29.83,SSE,158,4.0,6.9,26,0.00,OVC,SCT,0.00,100.0,WeatherDisplay:10.37,2013-08-29 21:14:00,
2013-08-29 16:19:00,96.4,56.0,29.83,SW,225,4.7,8.1,26,0.00,OVC,SCT,0.00,100.0,WeatherDisplay:10.37,2013-08-29 21:19:00,
2013-08-29 16:24:00,96.6,56.1,29.83,SSE,158,5.4,8.1,26,0.00,OVC,SCT,0.00,100.0,WeatherDisplay:10.37,2013-08-29 21:24:00,
2013-08-29 16:29:00,96.6,56.1,29.83,WNW,292,5.9,8.5,26,0.00,OVC,SCT,0.00,100.0,WeatherDisplay:10.37,2013-08-29 21:29:00,
2013-08-29 16:34:00,95.9,55.5,29.83,SSW,202,6.7,9.2,26,0.00,OVC,SCT,0.00,100.0,WeatherDisplay:10.37,2013-08-29 21:34:00,
2013-08-29 16:39:00,95.9,55.5,29.83,SSW,202,5.4,10.4,26,0.00,OVC,SCT,0.00,100.0,WeatherDisplay:10.37,2013-08-29 21:39:00,
2013-08-29 16:44:00,95.9,55.5,29.83,SSE,158,6.0,8.1,26,0.00,OVC,SCT,0.00,100.0,WeatherDisplay:10.37,2013-08-29 21:44:00,
2013-08-29 16:49:00,96.1,55.7,29.83,ESE,112,4.9,5.8,26,0.00,OVC,SCT,0.00,100.0,WeatherDisplay:10.37,2013-08-29 21:49:00,
2013-08-29 16:54:00,95.9,55.5,29.83,SSE,158,5.4,5.8,26,0.00,OVC,SCT,0.00,0.0,WeatherDisplay:10.37,2013-08-29 21:54:00,
2013-08-29 16:59:00,95.9,55.5,29.83,South,180,5.9,7.4,26,0.00,OVC,SCT,0.00,0.0,WeatherDisplay:10.37,2013-08-29 21:59:00,
2013-08-29 17:04:00,95.9,55.5,29.83,SSW,202,4.9,6.9,26,0.00,OVC,SCT,0.00,0.0,WeatherDisplay:10.37,2013-08-29 22:04:00,
2013-08-29 17:09:00,95.9,55.5,29.83,South,180,5.9,9.2,26,0.00,OVC,SCT,0.00,0.0,WeatherDisplay:10.37,2013-08-29 22:09:00,
2013-08-29 17:14:00,95.9,55.5,29.83,SSW,202,4.5,6.2,26,0.00,OVC,SCT,0.00,0.0,WeatherDisplay:10.37,2013-08-29 22:14:00,
2013-08-29 17:19:00,95.7,55.3,29.83,SSE,158,6.7,10.4,26,0.00,OVC,SCT,0.00,0.0,WeatherDisplay:10.37,2013-08-29 22:19:00,
2013-08-29 17:24:00,95.5,55.2,29.83,SSE,158,5.9,6.9,26,0.00,OVC,SCT,0.00,0.0,WeatherDisplay:10.37,2013-08-29 22:24:00,
2013-08-29 17:29:00,95.7,55.3,29.83,South,180,3.3,9.2,26,0.00,OVC,SCT,0.00,0.0,WeatherDisplay:10.37,2013-08-29 22:29:00,
2013-08-29 17:34:00,95.7,55.3,29.83,SSE,158,4.0,5.8,26,0.00,OVC,SCT,0.00,0.0,WeatherDisplay:10.37,2013-08-29 22:34:00,
2013-08-29 17:39:00,95.5,55.2,29.83,SSW,202,5.6,8.1,26,0.00,OVC,SCT,0.00,0.0,WeatherDisplay:10.37,2013-08-29 22:39:00,
2013-08-29 17:44:00,95.4,55.0,29.83,SSW,202,5.9,6.9,26,0.00,OVC,SCT,0.00,0.0,WeatherDisplay:10.37,2013-08-29 22:44:00,
2013-08-29 17:49:00,95.4,56.1,29.83,ENE,68,4.3,4.6,27,0.00,OVC,SCT,0.00,0.0,WeatherDisplay:10.37,2013-08-29 22:49:00,
2013-08-29 17:54:00,95.0,54.7,29.83,SSE,158,6.0,6.9,26,0.00,OVC,SCT,0.00,0.0,WeatherDisplay:10.37,2013-08-29 22:54:00,
2013-08-29 17:59:00,95.0,54.7,29.83,SSE,158,6.4,10.4,26,0.00,OVC,SCT,0.00,0.0,WeatherDisplay:10.37,2013-08-29 22:59:00,
2013-08-29 18:04:00,94.8,55.6,29.83,SSE,158,5.9,6.9,27,0.00,OVC,SCT,0.00,0.0,WeatherDisplay:10.37,2013-08-29 23:04:00,
2013-08-29 18:09:00,94.8,55.6,29.83,SSE,158,5.9,6.9,27,0.00,OVC,SCT,0.00,0.0,WeatherDisplay:10.37,2013-08-29 23:09:00,
2013-08-29 18:14:00,94.6,55.5,29.83,SSW,202,4.3,5.8,27,0.00,OVC,SCT,0.00,0.0,WeatherDisplay:10.37,2013-08-29 23:14:00,
2013-08-29 18:19:00,94.8,55.6,29.83,South,180,4.5,5.8,27,0.00,OVC,SCT,0.00,0.0,WeatherDisplay:10.37,2013-08-29 23:19:00,
2013-08-29 18:24:00,94.6,55.5,29.83,SSW,202,2.9,6.0,27,0.00,OVC,SCT,0.00,0.0,WeatherDisplay:10.37,2013-08-29 23:24:00,
2013-08-29 18:29:00,94.5,55.3,29.83,SSE,158,3.6,4.7,27,0.00,OVC,SCT,0.00,0.0,WeatherDisplay:10.37,2013-08-29 23:29:00,
2013-08-29 18:34:00,94.1,55.0,29.83,West,270,4.0,4.9,27,0.00,OVC,SCT,0.00,0.0,WeatherDisplay:10.37,2013-08-29 23:34:00,
2013-08-29 18:39:00,93.9,54.9,29.83,SSE,158,3.1,8.1,27,0.00,OVC,SCT,0.00,0.0,WeatherDisplay:10.37,2013-08-29 23:39:00,
2013-08-29 18:44:00,93.7,54.7,29.83,SSW,202,4.7,5.8,27,0.00,OVC,SCT,0.00,0.0,WeatherDisplay:10.37,2013-08-29 23:44:00,
2013-08-29 18:49:00,93.7,54.7,29.83,SSE,158,3.6,4.6,27,0.00,OVC,SCT,0.00,0.0,WeatherDisplay:10.37,2013-08-29 23:49:00,
2013-08-29 18:54:00,93.6,54.6,29.83,SSW,202,4.5,5.8,27,0.00,OVC,SCT,0.00,0.0,WeatherDisplay:10.37,2013-08-29 23:54:00,
2013-08-29 18:59:00,93.2,54.3,29.83,South,180,5.9,6.9,27,0.00,OVC,SCT,0.00,0.0,WeatherDisplay:10.37,2013-08-29 23:59:00,
2013-08-29 19:04:00,93.0,54.1,29.83,SSE,158,4.9,6.9,27,0.00,OVC,SCT,0.00,0.0,WeatherDisplay:10.37,2013-08-30 00:04:00,
2013-08-29 19:09:00,92.8,54.9,29.83,SSE,158,4.5,5.8,28,0.00,OVC,SCT,0.00,0.0,WeatherDisplay:10.37,2013-08-30 00:09:00,
2013-08-29 19:14:00,92.5,54.6,29.83,SSE,158,3.6,4.6,28,0.00,OVC,SCT,0.00,0.0,WeatherDisplay:10.37,2013-08-30 00:14:00,
2013-08-29 19:19:00,92.3,54.5,29.83,South,180,2.6,6.9,28,0.00,OVC,SCT,0.00,0.0,WeatherDisplay:10.37,2013-08-30 00:19:00,
2013-08-29 19:24:00,91.9,54.2,29.83,SW,225,4.0,5.8,28,0.00,OVC,SCT,0.00,0.0,WeatherDisplay:10.37,2013-08-30 00:24:00,
2013-08-29 19:29:00,91.6,53.9,29.83,SSE,158,2.2,3.6,28,0.00,OVC,SCT,0.00,0.0,WeatherDisplay:10.37,2013-08-30 00:29:00,
2013-08-29 19:34:00,91.2,54.5,29.83,SSW,202,2.9,3.6,29,0.00,OVC,SCT,0.00,0.0,WeatherDisplay:10.37,2013-08-30 00:34:00,
2013-08-29 19:39:00,90.9,54.2,29.83,ESE,112,2.4,3.5,29,0.00,OVC,SCT,0.00,0.0,WeatherDisplay:10.37,2013-08-30 00:39:00,
2013-08-29 19:44:00,90.5,53.9,29.83,ENE,68,2.4,3.6,29,0.00,OVC,SCT,0.00,0.0,WeatherDisplay:10.37,2013-08-30 00:44:00,
2013-08-29 19:49:00,89.8,54.2,29.83,SSW,202,3.6,3.8,30,0.00,OVC,SCT,0.00,0.0,WeatherDisplay:10.37,2013-08-30 00:49:00,
2013-08-29 19:54:00,89.6,54.1,29.83,SSW,202,2.9,4.6,30,0.00,OVC,SCT,0.00,0.0,WeatherDisplay:10.37,2013-08-30 00:54:00,
2013-08-29 19:59:00,89.2,54.6,29.83,SSW,202,3.1,4.6,31,0.00,OVC,SCT,0.00,0.0,WeatherDisplay:10.37,2013-08-30 00:59:00,
2013-08-29 20:04:00,88.9,55.2,29.83,ESE,112,2.0,3.6,32,0.00,OVC,SCT,0.00,0.0,WeatherDisplay:10.37,2013-08-30 01:04:00,
2013-08-29 20:09:00,88.5,54.9,29.83,SSW,202,2.0,2.3,32,0.00,OVC,SCT,0.00,0.0,WeatherDisplay:10.37,2013-08-30 01:09:00,
2013-08-29 20:14:00,88.2,55.4,29.83,East,90,1.1,2.9,33,0.00,OVC,SCT,0.00,0.0,WeatherDisplay:10.37,2013-08-30 01:14:00,
2013-08-29 20:19:00,88.0,55.3,29.85,SE,135,1.1,2.3,33,0.00,OVC,SCT,0.00,0.0,WeatherDisplay:10.37,2013-08-30 01:19:00,
2013-08-29 20:24:00,87.6,55.8,29.85,ESE,112,2.0,3.5,34,0.00,OVC,SCT,0.00,0.0,WeatherDisplay:10.37,2013-08-30 01:24:00,
2013-08-29 20:29:00,87.1,55.3,29.85,East,90,1.6,2.3,34,0.00,OVC,SCT,0.00,0.0,WeatherDisplay:10.37,2013-08-30 01:29:00,
2013-08-29 20:34:00,86.9,56.0,29.83,SE,135,2.6,3.5,35,0.00,CLR,SCT,0.00,0.0,WeatherDisplay:10.37,2013-08-30 01:34:00,
2013-08-29 20:39:00,86.5,56.4,29.83,ESE,112,2.4,3.5,36,0.00,CLR,SCT,0.00,0.0,WeatherDisplay:10.37,2013-08-30 01:39:00,
2013-08-29 20:44:00,86.2,56.1,29.83,SSE,158,1.6,3.6,36,0.00,CLR,SCT,0.00,0.0,WeatherDisplay:10.37,2013-08-30 01:44:00,
2013-08-29 20:49:00,86.0,56.7,29.85,East,90,2.0,3.5,37,0.00,CLR,SCT,0.00,0.0,WeatherDisplay:10.37,2013-08-30 01:49:00,
2013-08-29 20:54:00,85.6,57.8,29.85,ENE,68,3.1,5.8,39,0.00,CLR,SCT,0.00,0.0,WeatherDisplay:10.37,2013-08-30 01:54:00,
2013-08-29 20:59:00,85.6,57.8,29.85,East,90,2.0,3.5,39,0.00,CLR,SCT,0.00,0.0,WeatherDisplay:10.37,2013-08-30 01:59:00,
2013-08-29 21:04:00,85.5,58.4,29.85,ESE,112,2.4,3.5,40,0.00,CLR,SCT,0.00,0.0,WeatherDisplay:10.37,2013-08-30 02:04:00,
2013-08-29 21:09:00,85.3,58.2,29.85,SSE,158,2.2,3.6,40,0.00,CLR,SCT,0.00,0.0,WeatherDisplay:10.37,2013-08-30 02:09:00,
2013-08-29 21:14:00,85.1,58.8,29.85,East,90,1.6,2.3,41,0.00,CLR,SCT,0.00,0.0,WeatherDisplay:10.37,2013-08-30 02:14:00,
2013-08-29 21:19:00,84.9,58.6,29.85,ESE,112,2.0,2.3,41,0.00,CLR,SCT,0.00,0.0,WeatherDisplay:10.37,2013-08-30 02:19:00,
2013-08-29 21:24:00,84.7,58.4,29.85,SSW,202,2.0,4.6,41,0.00,CLR,SCT,0.00,0.0,WeatherDisplay:10.37,2013-08-30 02:24:00,
2013-08-29 21:29:00,84.6,58.9,29.85,ESE,112,1.6,2.3,42,0.00,CLR,SCT,0.00,0.0,WeatherDisplay:10.37,2013-08-30 02:29:00,
2013-08-29 21:34:00,84.2,58.6,29.85,SSE,158,2.4,4.6,42,0.00,CLR,SCT,0.00,0.0,WeatherDisplay:10.37,2013-08-30 02:34:00,
2013-08-29 21:39:00,84.0,59.1,29.85,SE,135,2.2,2.9,43,0.00,CLR,SCT,0.00,0.0,WeatherDisplay:10.37,2013-08-30 02:39:00,
2013-08-29 21:44:00,83.8,59.6,29.85,East,90,2.2,2.3,44,0.00,CLR,SCT,0.00,0.0,WeatherDisplay:10.37,2013-08-30 02:44:00,
2013-08-29 21:49:00,83.7,60.1,29.85,East,90,2.2,3.6,45,0.00,CLR,SCT,0.00,0.0,WeatherDisplay:10.37,2013-08-30 02:49:00,
2013-08-29 21:54:00,83.5,60.5,29.85,ESE,112,3.1,4.6,46,0.00,CLR,SCT,0.00,0.0,WeatherDisplay:10.37,2013-08-30 02:54:00,
2013-08-29 21:59:00,83.5,61.1,29.85,ESE,112,3.1,4.6,47,0.00,CLR,SCT,0.00,0.0,WeatherDisplay:10.37,2013-08-30 02:59:00,
2013-08-29 22:04:00,83.1,61.4,29.85,SSE,158,1.4,4.6,48,0.00,CLR,SCT,0.00,0.0,WeatherDisplay:10.37,2013-08-30 03:04:00,
2013-08-29 22:09:00,83.1,62.0,29.85,ESE,112,2.2,2.3,49,0.00,CLR,SCT,0.00,0.0,WeatherDisplay:10.37,2013-08-30 03:09:00,
2013-08-29 22:14:00,82.9,61.8,29.85,SE,135,2.4,4.6,49,0.00,CLR,SCT,0.00,0.0,WeatherDisplay:10.37,2013-08-30 03:14:00,
2013-08-29 22:19:00,82.8,62.2,29.85,SSE,158,2.2,2.3,50,0.00,CLR,SCT,0.00,0.0,WeatherDisplay:10.37,2013-08-30 03:19:00,
2013-08-29 22:24:00,82.6,62.1,29.85,SSE,158,2.2,3.5,50,0.00,CLR,SCT,0.00,0.0,WeatherDisplay:10.37,2013-08-30 03:24:00,
2013-08-29 22:29:00,82.6,62.6,29.85,SSE,158,2.0,2.3,51,0.00,CLR,SCT,0.00,0.0,WeatherDisplay:10.37,2013-08-30 03:29:00,
2013-08-29 22:34:00,82.4,63.5,29.85,East,90,2.0,2.3,53,0.00,CLR,SCT,0.00,0.0,WeatherDisplay:10.37,2013-08-30 03:34:00,
2013-08-29 22:39:00,82.0,63.2,29.85,SSE,158,2.9,3.5,53,0.00,CLR,SCT,0.00,0.0,WeatherDisplay:10.37,2013-08-30 03:39:00,
2013-08-29 22:44:00,82.0,63.2,29.85,East,90,2.2,3.5,53,0.00,CLR,SCT,0.00,0.0,WeatherDisplay:10.37,2013-08-30 03:44:00,
2013-08-29 22:49:00,81.9,63.1,29.85,SSE,158,3.1,4.0,53,0.00,CLR,SCT,0.00,0.0,WeatherDisplay:10.37,2013-08-30 03:49:00,
2013-08-29 22:54:00,81.7,62.9,29.85,ESE,112,2.2,4.6,53,0.00,CLR,SCT,0.00,0.0,WeatherDisplay:10.37,2013-08-30 03:54:00,
2013-08-29 22:59:00,81.5,63.3,29.85,ESE,112,2.4,4.6,54,0.00,CLR,SCT,0.00,0.0,WeatherDisplay:10.37,2013-08-30 03:59:00,
2013-08-29 23:01:00,81.5,63.8,29.85,SE,135,2.6,3.8,55,0.00,CLR,SCT,0.00,0.0,WeatherDisplay:10.37,2013-08-30 04:01:00,
2013-08-29 23:02:00,81.3,63.1,29.85,ESE,112,2.4,3.5,54,0.00,CLR,SCT,0.00,0.0,WeatherDisplay:10.37,2013-08-30 04:02:00,
2013-08-29 23:03:00,81.3,63.1,29.85,SSE,158,2.2,3.5,54,0.00,CLR,SCT,0.00,0.0,WeatherDisplay:10.37,2013-08-30 04:03:00,
2013-08-29 23:04:00,81.3,63.6,29.85,SSE,158,2.4,3.5,55,0.00,CLR,SCT,0.00,0.0,WeatherDisplay:10.37,2013-08-30 04:04:00,
2013-08-29 23:09:00,81.1,64.0,29.85,SW,225,2.4,3.6,56,0.00,CLR,SCT,0.00,0.0,WeatherDisplay:10.37,2013-08-30 04:09:00,
2013-08-29 23:14:00,81.0,64.3,29.85,ENE,68,2.6,4.6,57,0.00,CLR,SCT,0.00,0.0,WeatherDisplay:10.37,2013-08-30 04:14:00,
2013-08-29 23:19:00,81.0,64.8,29.83,WSW,248,2.0,3.6,58,0.00,CLR,SCT,0.00,0.0,WeatherDisplay:10.37,2013-08-30 04:19:00,
2013-08-29 23:24:00,80.8,64.1,29.83,ESE,112,2.4,4.6,57,0.00,CLR,SCT,0.00,0.0,WeatherDisplay:10.37,2013-08-30 04:24:00,
2013-08-29 23:29:00,80.6,64.9,29.83,South,180,1.6,2.3,59,0.00,CLR,SCT,0.00,0.0,WeatherDisplay:10.37,2013-08-30 04:29:00,
2013-08-29 23:34:00,80.6,64.9,29.83,SSE,158,2.4,3.5,59,0.00,CLR,SCT,0.00,0.0,WeatherDisplay:10.37,2013-08-30 04:34:00,
2013-08-29 23:39:00,80.4,65.3,29.83,SSW,202,1.4,2.6,60,0.00,CLR,SCT,0.00,0.0,WeatherDisplay:10.37,2013-08-30 04:39:00,
2013-08-29 23:44:00,80.4,65.3,29.83,SSE,158,2.2,3.5,60,0.00,CLR,SCT,0.00,0.0,WeatherDisplay:10.37,2013-08-30 04:44:00,
2013-08-29 23:49:00,80.2,65.1,29.83,South,180,2.2,3.5,60,0.00,CLR,SCT,0.00,0.0,WeatherDisplay:10.37,2013-08-30 04:49:00,
2013-08-29 23:54:00,80.2,65.1,29.83,SSE,158,2.0,4.6,60,0.00,CLR,SCT,0.00,0.0,WeatherDisplay:10.37,2013-08-30 04:54:00,
2013-08-29 23:59:00,80.1,64.9,29.83,ESE,112,2.0,3.5,60,0.00,CLR,SCT,0.00,0.0,WeatherDisplay:10.37,2013-08-30 04:59:00,